Аэропорт: Байкал. Улан-Удэ

ICAO: UIUU

METAR:
2018/11/21 18:30
UIUU 211830Z 34001MPS 2700 BR FU NSC M19/M21 Q1023 R26/810555 NOSIG RMK QFE723/0964
METAR:
2018/11/21 18:21
TAF UIUU 211700Z 2118/2218 27003MPS 2100 BR FU SCT040 
      TEMPO 2118/2203 0500 FZFG VV001 
      BECMG 2203/2205 19005MPS 3500 BR FU